Arnold, CA (95223)

6:42 AM PDT on May 24, 2015 (GMT -0700)
Lilac Park | | Change Station
CLOSE
Current Station
Personal Weather Station
Location: Arnold, CA
Elevation: 4276 ft
Nearby Weather Stations

Elev 4276 ft 38.25 °N, 120.35 °W | Updated 11 minutes ago

Partly Cloudy
Partly Cloudy
47.8 °F
Feels Like 48 °F
N
0.0
Wind Variable Wind from ESE

Today
High -- | Low -- °F
--% Chance of Precip.
Yesterday
High -- | Low -- °F
Precip. -- in
5:43 AM 8:13 PM
Waxing Crescent, 39% visible
Pressure 29.98 in
Visibility 10.0 miles
Clouds Clear
Windchill 48 °F
Dew Point 42 °F
Humidity 81%
Rainfall 0.00 in
Snow Depth Not available.
UV 0 out of 12
Pollen 7.10 out of 12
Air Quality Not available.
Flu Activity Sporadic
METAR KPVF 241315Z AUTO 04004KT 10SM CLR 13/07 A2998 RMK AO1

More Conditions Fewer Conditions

Pressure 29.98 in
Visibility 10.0 miles
Clouds Clear
Windchill 48 °F
Dew Point 42 °F
Humidity 81%
Rainfall 0.00 in
Snow Depth Not available.
UV 0 out of 12
Pollen 7.10 out of 12
Air Quality Not available.
Flu Activity Sporadic
METAR KPVF 241315Z AUTO 04004KT 10SM CLR 13/07 A2998 RMK AO1

More Conditions Fewer Conditions

10-Day Weather Forecast

Almanac

Astronomy

May. 24, 2015 Rise Set
Actual Time
Civil Twilight
Nautical Twilight
Astronomical Twilight
Moon
Length of Visible Light
Length of Day
Tomorrow will be .
, % of the Moon is Illuminated

Today's Extremes

State Highs State Lows

Community

WunderPhotos

Upload Photos

1,823,738 photos uploaded!

WunderBlogs® & News

Nearby

Air Quality

  Air Quality AQ Index Pollutant
Not available.

Snow Depth

Station Depth Elevation

Earthquake Activity

City Distance Mag. Time & Date
Minimum magnitude displayed is 2.5.

Coastal Water Temperatures

Place Temperature

Stations

Nearby Weather Stations

Station Location Temp. Windchill Dew Point Humidity Wind Precip. Elev Updated Type